Terminal Aerodrome Forecast
Issued by NWS

Home | Current Version | Previous Version | Text Only | Print | Product List | Glossary On
Versions: 1 2 3 4 5 6 7 8 9 10 11 12 13 14 15 16 17 18 19
824
FTUS42 KILM 272342 CCA
TAFCRE
TAF COR
KCRE 272342Z 2800/2824 18009KT P6SM SCT100
     FM280500 20005KT P6SM SCT080
     FM281100 22005KT P6SM BKN080 PROB30 2814/2820 2SM -TSRA
      OVC013CB
     FM282100 22012KT P6SM SCT070 PROB30 2821/2822 2SM -TSRA
      BKN070CB=

USA.gov is the U.S. government's official web portal to all federal, state and local government web resources and services.